sensor_id;sensor_type;location;lat;lon;timestamp;pressure;altitude;pressure_sealevel;temperature;humidity
49457;BME280;35352;51.480;-0.862;2023-03-01T00:01:15;102810.62;;;6.74;100.00
49457;BME280;35352;51.480;-0.862;2023-03-01T00:03:43;102809.94;;;6.65;100.00
49457;BME280;35352;51.480;-0.862;2023-03-01T00:06:11;102807.46;;;6.71;100.00
49457;BME280;35352;51.480;-0.862;2023-03-01T00:08:38;102810.17;;;6.22;100.00
49457;BME280;35352;51.480;-0.862;2023-03-01T00:11:15;102811.26;;;5.89;100.00
49457;BME280;35352;51.480;-0.862;2023-03-01T00:13:44;102810.72;;;5.99;100.00
49457;BME280;35352;51.480;-0.862;2023-03-01T00:16:14;102816.00;;;5.79;100.00
49457;BME280;35352;51.480;-0.862;2023-03-01T00:18:42;102811.47;;;6.20;100.00
49457;BME280;35352;51.480;-0.862;2023-03-01T00:21:13;102810.83;;;6.04;100.00
49457;BME280;35352;51.480;-0.862;2023-03-01T00:23:40;102812.07;;;6.08;100.00
49457;BME280;35352;51.480;-0.862;2023-03-01T00:26:10;102811.18;;;5.64;100.00
49457;BME280;35352;51.480;-0.862;2023-03-01T00:28:37;102818.17;;;5.64;100.00
49457;BME280;35352;51.480;-0.862;2023-03-01T00:31:15;102818.68;;;5.73;100.00
49457;BME280;35352;51.480;-0.862;2023-03-01T00:33:43;102817.32;;;5.79;100.00
49457;BME280;35352;51.480;-0.862;2023-03-01T00:36:13;102817.64;;;6.01;100.00
49457;BME280;35352;51.480;-0.862;2023-03-01T00:38:43;102813.43;;;6.33;100.00
49457;BME280;35352;51.480;-0.862;2023-03-01T00:41:15;102811.31;;;6.70;100.00
49457;BME280;35352;51.480;-0.862;2023-03-01T00:43:44;102809.51;;;6.74;100.00
49457;BME280;35352;51.480;-0.862;2023-03-01T00:46:14;102815.28;;;5.91;100.00
49457;BME280;35352;51.480;-0.862;2023-03-01T00:48:43;102815.10;;;5.71;100.00
49457;BME280;35352;51.480;-0.862;2023-03-01T00:51:14;102816.58;;;5.71;100.00
49457;BME280;35352;51.480;-0.862;2023-03-01T00:53:43;102815.07;;;5.09;100.00
49457;BME280;35352;51.480;-0.862;2023-03-01T00:56:14;102818.38;;;5.41;100.00
49457;BME280;35352;51.480;-0.862;2023-03-01T00:58:42;102820.12;;;5.43;100.00
49457;BME280;35352;51.480;-0.862;2023-03-01T01:01:16;102817.98;;;5.26;100.00
49457;BME280;35352;51.480;-0.862;2023-03-01T01:03:45;102816.33;;;5.02;100.00
49457;BME280;35352;51.480;-0.862;2023-03-01T01:06:15;102814.72;;;5.33;100.00
49457;BME280;35352;51.480;-0.862;2023-03-01T01:08:43;102809.91;;;5.45;100.00
49457;BME280;35352;51.480;-0.862;2023-03-01T01:11:13;102811.06;;;5.28;100.00
49457;BME280;35352;51.480;-0.862;2023-03-01T01:13:41;102807.55;;;5.76;100.00
49457;BME280;35352;51.480;-0.862;2023-03-01T01:16:09;102806.93;;;5.21;100.00
49457;BME280;35352;51.480;-0.862;2023-03-01T01:18:38;102805.68;;;5.62;100.00
49457;BME280;35352;51.480;-0.862;2023-03-01T01:21:15;102803.15;;;5.65;100.00
49457;BME280;35352;51.480;-0.862;2023-03-01T01:23:44;102807.98;;;5.63;100.00
49457;BME280;35352;51.480;-0.862;2023-03-01T01:26:13;102809.00;;;5.40;100.00
49457;BME280;35352;51.480;-0.862;2023-03-01T01:28:41;102808.33;;;5.68;100.00
49457;BME280;35352;51.480;-0.862;2023-03-01T01:31:14;102799.26;;;6.05;100.00
49457;BME280;35352;51.480;-0.862;2023-03-01T01:33:42;102796.54;;;5.95;100.00
49457;BME280;35352;51.480;-0.862;2023-03-01T01:36:10;102801.11;;;5.57;100.00
49457;BME280;35352;51.480;-0.862;2023-03-01T01:38:42;102802.49;;;5.68;100.00
49457;BME280;35352;51.480;-0.862;2023-03-01T01:41:14;102800.10;;;5.19;100.00
49457;BME280;35352;51.480;-0.862;2023-03-01T01:43:43;102801.46;;;5.87;100.00
49457;BME280;35352;51.480;-0.862;2023-03-01T01:46:21;102801.78;;;5.46;100.00
49457;BME280;35352;51.480;-0.862;2023-03-01T01:48:55;102796.86;;;5.86;100.00
49457;BME280;35352;51.480;-0.862;2023-03-01T01:51:31;102797.03;;;5.33;100.00
49457;BME280;35352;51.480;-0.862;2023-03-01T01:54:01;102796.57;;;5.33;100.00
49457;BME280;35352;51.480;-0.862;2023-03-01T01:56:29;102791.81;;;5.78;100.00
49457;BME280;35352;51.480;-0.862;2023-03-01T01:58:57;102789.73;;;5.62;100.00
49457;BME280;35352;51.480;-0.862;2023-03-01T02:01:25;102787.31;;;5.20;100.00
49457;BME280;35352;51.480;-0.862;2023-03-01T02:03:52;102786.50;;;5.78;100.00
49457;BME280;35352;51.480;-0.862;2023-03-01T02:06:24;102783.53;;;5.64;100.00
49457;BME280;35352;51.480;-0.862;2023-03-01T02:08:57;102774.56;;;6.05;100.00
49457;BME280;35352;51.480;-0.862;2023-03-01T02:11:27;102772.63;;;4.99;100.00
49457;BME280;35352;51.480;-0.862;2023-03-01T02:13:56;102769.66;;;4.52;100.00
49457;BME280;35352;51.480;-0.862;2023-03-01T02:16:26;102767.19;;;4.52;100.00
49457;BME280;35352;51.480;-0.862;2023-03-01T02:18:54;102764.81;;;5.30;100.00
49457;BME280;35352;51.480;-0.862;2023-03-01T02:21:31;102759.04;;;4.40;100.00
49457;BME280;35352;51.480;-0.862;2023-03-01T02:24:08;102761.91;;;4.68;100.00
49457;BME280;35352;51.480;-0.862;2023-03-01T02:26:46;102761.21;;;4.69;100.00
49457;BME280;35352;51.480;-0.862;2023-03-01T02:29:15;102761.07;;;5.07;100.00
49457;BME280;35352;51.480;-0.862;2023-03-01T02:31:43;102761.06;;;4.76;100.00
49457;BME280;35352;51.480;-0.862;2023-03-01T02:34:13;102759.31;;;5.14;100.00
49457;BME280;35352;51.480;-0.862;2023-03-01T02:36:45;102759.13;;;4.79;100.00
49457;BME280;35352;51.480;-0.862;2023-03-01T02:39:17;102756.79;;;4.68;100.00
49457;BME280;35352;51.480;-0.862;2023-03-01T02:41:51;102754.54;;;4.91;100.00
49457;BME280;35352;51.480;-0.862;2023-03-01T02:44:19;102750.93;;;4.50;100.00
49457;BME280;35352;51.480;-0.862;2023-03-01T02:46:50;102746.47;;;4.56;100.00
49457;BME280;35352;51.480;-0.862;2023-03-01T02:49:24;102745.00;;;4.38;100.00
49457;BME280;35352;51.480;-0.862;2023-03-01T02:52:26;102740.66;;;4.19;100.00
49457;BME280;35352;51.480;-0.862;2023-03-01T02:54:59;102736.59;;;4.21;100.00
49457;BME280;35352;51.480;-0.862;2023-03-01T02:57:29;102733.90;;;4.22;100.00
49457;BME280;35352;51.480;-0.862;2023-03-01T03:00:02;102730.28;;;4.48;100.00
49457;BME280;35352;51.480;-0.862;2023-03-01T03:02:30;102731.15;;;4.52;100.00
49457;BME280;35352;51.480;-0.862;2023-03-01T03:04:57;102729.96;;;4.46;100.00
49457;BME280;35352;51.480;-0.862;2023-03-01T03:07:24;102725.22;;;4.91;100.00
49457;BME280;35352;51.480;-0.862;2023-03-01T03:09:52;102724.63;;;4.92;100.00
49457;BME280;35352;51.480;-0.862;2023-03-01T03:12:19;102719.38;;;5.55;100.00
49457;BME280;35352;51.480;-0.862;2023-03-01T03:14:46;102712.37;;;5.87;100.00
49457;BME280;35352;51.480;-0.862;2023-03-01T03:17:13;102710.43;;;5.99;100.00
49457;BME280;35352;51.480;-0.862;2023-03-01T03:19:41;102708.39;;;5.86;100.00
49457;BME280;35352;51.480;-0.862;2023-03-01T03:22:08;102704.37;;;5.70;100.00
49457;BME280;35352;51.480;-0.862;2023-03-01T03:24:35;102704.72;;;5.79;100.00
49457;BME280;35352;51.480;-0.862;2023-03-01T03:27:02;102701.07;;;5.82;100.00
49457;BME280;35352;51.480;-0.862;2023-03-01T03:29:29;102699.31;;;5.99;100.00
49457;BME280;35352;51.480;-0.862;2023-03-01T03:31:57;102695.54;;;6.46;100.00
49457;BME280;35352;51.480;-0.862;2023-03-01T03:34:24;102698.13;;;6.52;100.00
49457;BME280;35352;51.480;-0.862;2023-03-01T03:36:53;102698.04;;;6.08;100.00
49457;BME280;35352;51.480;-0.862;2023-03-01T03:39:21;102693.24;;;5.74;100.00
49457;BME280;35352;51.480;-0.862;2023-03-01T03:41:48;102695.64;;;6.31;100.00
49457;BME280;35352;51.480;-0.862;2023-03-01T03:44:15;102692.04;;;6.30;100.00
49457;BME280;35352;51.480;-0.862;2023-03-01T03:46:42;102692.03;;;5.77;100.00
49457;BME280;35352;51.480;-0.862;2023-03-01T03:49:10;102691.00;;;6.09;100.00
49457;BME280;35352;51.480;-0.862;2023-03-01T03:51:37;102686.86;;;5.57;100.00
49457;BME280;35352;51.480;-0.862;2023-03-01T03:54:04;102683.20;;;5.39;100.00
49457;BME280;35352;51.480;-0.862;2023-03-01T03:56:31;102684.01;;;6.04;100.00
49457;BME280;35352;51.480;-0.862;2023-03-01T03:58:58;102685.02;;;6.14;100.00
49457;BME280;35352;51.480;-0.862;2023-03-01T04:01:26;102683.59;;;6.10;100.00
49457;BME280;35352;51.480;-0.862;2023-03-01T04:03:53;102683.97;;;6.25;100.00
49457;BME280;35352;51.480;-0.862;2023-03-01T04:06:20;102683.61;;;6.21;100.00
49457;BME280;35352;51.480;-0.862;2023-03-01T04:08:48;102681.09;;;6.61;100.00
49457;BME280;35352;51.480;-0.862;2023-03-01T04:11:14;102676.04;;;5.83;100.00
49457;BME280;35352;51.480;-0.862;2023-03-01T04:13:44;102675.54;;;6.56;100.00
49457;BME280;35352;51.480;-0.862;2023-03-01T04:16:12;102674.91;;;6.86;100.00
49457;BME280;35352;51.480;-0.862;2023-03-01T04:18:40;102671.14;;;6.90;100.00
49457;BME280;35352;51.480;-0.862;2023-03-01T04:21:13;102669.41;;;6.80;100.00
49457;BME280;35352;51.480;-0.862;2023-03-01T04:23:41;102663.71;;;7.04;100.00
49457;BME280;35352;51.480;-0.862;2023-03-01T04:26:08;102660.14;;;7.38;100.00
49457;BME280;35352;51.480;-0.862;2023-03-01T04:28:38;102658.93;;;7.51;100.00
49457;BME280;35352;51.480;-0.862;2023-03-01T04:31:15;102662.21;;;7.67;100.00
49457;BME280;35352;51.480;-0.862;2023-03-01T04:33:44;102662.93;;;7.74;100.00
49457;BME280;35352;51.480;-0.862;2023-03-01T04:36:14;102662.46;;;7.34;100.00
49457;BME280;35352;51.480;-0.862;2023-03-01T04:38:41;102660.31;;;7.34;100.00
49457;BME280;35352;51.480;-0.862;2023-03-01T04:41:14;102661.98;;;7.32;100.00
49457;BME280;35352;51.480;-0.862;2023-03-01T04:43:42;102664.59;;;7.06;100.00
49457;BME280;35352;51.480;-0.862;2023-03-01T04:46:12;102662.35;;;7.55;100.00
49457;BME280;35352;51.480;-0.862;2023-03-01T04:48:41;102658.07;;;7.41;100.00
49457;BME280;35352;51.480;-0.862;2023-03-01T04:51:13;102657.20;;;7.15;100.00
49457;BME280;35352;51.480;-0.862;2023-03-01T04:53:42;102652.86;;;7.04;100.00
49457;BME280;35352;51.480;-0.862;2023-03-01T04:56:10;102649.73;;;7.58;100.00
49457;BME280;35352;51.480;-0.862;2023-03-01T04:58:38;102648.85;;;7.51;100.00
49457;BME280;35352;51.480;-0.862;2023-03-01T05:01:15;102649.27;;;7.88;100.00
49457;BME280;35352;51.480;-0.862;2023-03-01T05:03:43;102649.23;;;7.99;100.00
49457;BME280;35352;51.480;-0.862;2023-03-01T05:06:11;102646.82;;;7.87;100.00
49457;BME280;35352;51.480;-0.862;2023-03-01T05:08:38;102645.65;;;7.91;100.00
49457;BME280;35352;51.480;-0.862;2023-03-01T05:11:13;102643.68;;;8.19;100.00
49457;BME280;35352;51.480;-0.862;2023-03-01T05:13:40;102643.07;;;8.22;100.00
49457;BME280;35352;51.480;-0.862;2023-03-01T05:16:08;102641.73;;;8.14;100.00
49457;BME280;35352;51.480;-0.862;2023-03-01T05:18:36;102639.95;;;7.91;100.00
49457;BME280;35352;51.480;-0.862;2023-03-01T05:21:14;102639.26;;;7.79;100.00
49457;BME280;35352;51.480;-0.862;2023-03-01T05:23:41;102640.44;;;7.69;100.00
49457;BME280;35352;51.480;-0.862;2023-03-01T05:26:08;102637.49;;;7.69;100.00
49457;BME280;35352;51.480;-0.862;2023-03-01T05:28:36;102635.14;;;7.82;100.00
49457;BME280;35352;51.480;-0.862;2023-03-01T05:31:13;102629.23;;;7.62;100.00
49457;BME280;35352;51.480;-0.862;2023-03-01T05:33:41;102629.08;;;7.42;100.00
49457;BME280;35352;51.480;-0.862;2023-03-01T05:36:09;102624.44;;;7.55;100.00
49457;BME280;35352;51.480;-0.862;2023-03-01T05:38:37;102621.76;;;7.57;100.00
49457;BME280;35352;51.480;-0.862;2023-03-01T05:41:14;102621.98;;;7.72;100.00
49457;BME280;35352;51.480;-0.862;2023-03-01T05:43:42;102620.48;;;7.58;100.00
49457;BME280;35352;51.480;-0.862;2023-03-01T05:46:09;102618.32;;;7.88;100.00
49457;BME280;35352;51.480;-0.862;2023-03-01T05:48:36;102618.40;;;7.58;100.00
49457;BME280;35352;51.480;-0.862;2023-03-01T05:51:13;102620.04;;;8.10;100.00
49457;BME280;35352;51.480;-0.862;2023-03-01T05:53:40;102616.88;;;7.86;100.00
49457;BME280;35352;51.480;-0.862;2023-03-01T05:56:08;102614.49;;;7.58;100.00
49457;BME280;35352;51.480;-0.862;2023-03-01T05:58:35;102612.34;;;7.77;100.00
49457;BME280;35352;51.480;-0.862;2023-03-01T06:01:13;102607.52;;;8.01;100.00
49457;BME280;35352;51.480;-0.862;2023-03-01T06:03:40;102606.02;;;7.87;100.00
49457;BME280;35352;51.480;-0.862;2023-03-01T06:06:07;102609.22;;;7.55;100.00
49457;BME280;35352;51.480;-0.862;2023-03-01T06:08:34;102615.24;;;7.63;100.00
49457;BME280;35352;51.480;-0.862;2023-03-01T06:11:13;102619.66;;;7.62;100.00
49457;BME280;35352;51.480;-0.862;2023-03-01T06:13:41;102617.66;;;7.34;100.00
49457;BME280;35352;51.480;-0.862;2023-03-01T06:16:09;102621.73;;;6.29;100.00
49457;BME280;35352;51.480;-0.862;2023-03-01T06:18:36;102620.17;;;6.62;100.00
49457;BME280;35352;51.480;-0.862;2023-03-01T06:21:13;102620.91;;;5.88;100.00
49457;BME280;35352;51.480;-0.862;2023-03-01T06:23:41;102623.32;;;6.38;100.00
49457;BME280;35352;51.480;-0.862;2023-03-01T06:26:08;102617.87;;;6.34;100.00
49457;BME280;35352;51.480;-0.862;2023-03-01T06:28:36;102620.86;;;6.66;100.00
49457;BME280;35352;51.480;-0.862;2023-03-01T06:31:13;102617.58;;;6.03;100.00
49457;BME280;35352;51.480;-0.862;2023-03-01T06:38:44;102615.91;;;5.79;100.00
49457;BME280;35352;51.480;-0.862;2023-03-01T06:38:46;102620.56;;;6.07;100.00
49457;BME280;35352;51.480;-0.862;2023-03-01T06:41:18;102622.12;;;6.04;100.00
49457;BME280;35352;51.480;-0.862;2023-03-01T06:43:45;102622.29;;;6.17;100.00
49457;BME280;35352;51.480;-0.862;2023-03-01T06:46:13;102623.63;;;5.92;100.00
49457;BME280;35352;51.480;-0.862;2023-03-01T06:48:40;102626.86;;;5.86;100.00
49457;BME280;35352;51.480;-0.862;2023-03-01T06:51:13;102631.08;;;6.17;100.00
49457;BME280;35352;51.480;-0.862;2023-03-01T06:53:40;102637.52;;;5.56;100.00
49457;BME280;35352;51.480;-0.862;2023-03-01T06:56:08;102639.17;;;5.47;100.00
49457;BME280;35352;51.480;-0.862;2023-03-01T06:58:35;102643.92;;;6.10;100.00
49457;BME280;35352;51.480;-0.862;2023-03-01T07:01:13;102650.53;;;6.54;100.00
49457;BME280;35352;51.480;-0.862;2023-03-01T07:03:41;102649.83;;;6.41;100.00
49457;BME280;35352;51.480;-0.862;2023-03-01T07:06:09;102650.49;;;6.58;100.00
49457;BME280;35352;51.480;-0.862;2023-03-01T07:08:36;102650.86;;;6.35;100.00
49457;BME280;35352;51.480;-0.862;2023-03-01T07:11:13;102652.47;;;5.90;100.00
49457;BME280;35352;51.480;-0.862;2023-03-01T07:13:41;102651.56;;;5.82;100.00
49457;BME280;35352;51.480;-0.862;2023-03-01T07:16:08;102648.34;;;5.70;100.00
49457;BME280;35352;51.480;-0.862;2023-03-01T07:18:35;102648.92;;;5.34;100.00
49457;BME280;35352;51.480;-0.862;2023-03-01T07:21:14;102653.73;;;5.73;100.00
49457;BME280;35352;51.480;-0.862;2023-03-01T07:23:42;102654.97;;;5.22;100.00
49457;BME280;35352;51.480;-0.862;2023-03-01T07:26:09;102652.53;;;4.81;100.00
49457;BME280;35352;51.480;-0.862;2023-03-01T07:28:36;102655.18;;;4.68;100.00
49457;BME280;35352;51.480;-0.862;2023-03-01T07:31:14;102651.66;;;5.37;100.00
49457;BME280;35352;51.480;-0.862;2023-03-01T07:33:41;102662.95;;;4.98;100.00
49457;BME280;35352;51.480;-0.862;2023-03-01T07:36:09;102665.33;;;4.94;100.00
49457;BME280;35352;51.480;-0.862;2023-03-01T07:38:36;102665.04;;;5.21;100.00
49457;BME280;35352;51.480;-0.862;2023-03-01T07:41:14;102664.66;;;5.28;100.00
49457;BME280;35352;51.480;-0.862;2023-03-01T07:43:41;102666.91;;;4.79;100.00
49457;BME280;35352;51.480;-0.862;2023-03-01T07:46:08;102663.85;;;5.33;100.00
49457;BME280;35352;51.480;-0.862;2023-03-01T07:48:36;102657.42;;;5.28;100.00
49457;BME280;35352;51.480;-0.862;2023-03-01T07:51:13;102654.66;;;5.45;100.00
49457;BME280;35352;51.480;-0.862;2023-03-01T07:53:40;102654.89;;;5.58;100.00
49457;BME280;35352;51.480;-0.862;2023-03-01T07:56:10;102653.99;;;5.20;100.00
49457;BME280;35352;51.480;-0.862;2023-03-01T07:58:39;102655.86;;;5.22;100.00
49457;BME280;35352;51.480;-0.862;2023-03-01T08:01:15;102654.67;;;5.30;100.00
49457;BME280;35352;51.480;-0.862;2023-03-01T08:03:42;102650.71;;;5.37;100.00
49457;BME280;35352;51.480;-0.862;2023-03-01T08:06:11;102645.96;;;5.34;100.00
49457;BME280;35352;51.480;-0.862;2023-03-01T08:08:38;102644.63;;;5.30;100.00
49457;BME280;35352;51.480;-0.862;2023-03-01T08:11:14;102643.91;;;5.38;100.00
49457;BME280;35352;51.480;-0.862;2023-03-01T08:13:42;102642.12;;;5.13;100.00
49457;BME280;35352;51.480;-0.862;2023-03-01T08:16:12;102639.25;;;4.88;100.00
49457;BME280;35352;51.480;-0.862;2023-03-01T08:18:39;102645.58;;;4.49;100.00
49457;BME280;35352;51.480;-0.862;2023-03-01T08:21:15;102640.79;;;5.29;100.00
49457;BME280;35352;51.480;-0.862;2023-03-01T08:23:43;102642.30;;;4.42;100.00
49457;BME280;35352;51.480;-0.862;2023-03-01T08:26:13;102648.93;;;5.25;100.00
49457;BME280;35352;51.480;-0.862;2023-03-01T08:28:41;102642.55;;;5.35;100.00
49457;BME280;35352;51.480;-0.862;2023-03-01T08:31:15;102647.06;;;4.68;100.00
49457;BME280;35352;51.480;-0.862;2023-03-01T08:33:43;102643.44;;;4.92;100.00
49457;BME280;35352;51.480;-0.862;2023-03-01T08:36:11;102643.12;;;5.31;100.00
49457;BME280;35352;51.480;-0.862;2023-03-01T08:38:38;102645.01;;;5.52;100.00
49457;BME280;35352;51.480;-0.862;2023-03-01T08:41:13;102647.50;;;5.49;100.00
49457;BME280;35352;51.480;-0.862;2023-03-01T08:43:41;102646.37;;;5.60;100.00
49457;BME280;35352;51.480;-0.862;2023-03-01T08:46:08;102645.16;;;5.74;100.00
49457;BME280;35352;51.480;-0.862;2023-03-01T08:48:35;102637.44;;;5.33;100.00
49457;BME280;35352;51.480;-0.862;2023-03-01T08:51:15;102637.61;;;5.48;100.00
49457;BME280;35352;51.480;-0.862;2023-03-01T08:53:44;102641.74;;;5.22;100.00
49457;BME280;35352;51.480;-0.862;2023-03-01T08:56:12;102640.15;;;5.22;100.00
49457;BME280;35352;51.480;-0.862;2023-03-01T08:58:39;102639.22;;;5.33;100.00
49457;BME280;35352;51.480;-0.862;2023-03-01T09:01:15;102639.50;;;4.90;100.00
49457;BME280;35352;51.480;-0.862;2023-03-01T09:03:44;102631.33;;;5.13;100.00
49457;BME280;35352;51.480;-0.862;2023-03-01T09:06:12;102630.30;;;5.20;100.00
49457;BME280;35352;51.480;-0.862;2023-03-01T09:08:41;102627.76;;;5.49;100.00
49457;BME280;35352;51.480;-0.862;2023-03-01T09:11:15;102625.01;;;5.40;100.00
49457;BME280;35352;51.480;-0.862;2023-03-01T09:13:46;102616.44;;;5.27;100.00
49457;BME280;35352;51.480;-0.862;2023-03-01T09:16:16;102619.08;;;6.01;100.00
49457;BME280;35352;51.480;-0.862;2023-03-01T09:18:43;102615.00;;;6.08;100.00
49457;BME280;35352;51.480;-0.862;2023-03-01T09:21:14;102614.70;;;6.37;100.00
49457;BME280;35352;51.480;-0.862;2023-03-01T09:23:43;102612.40;;;6.43;100.00
49457;BME280;35352;51.480;-0.862;2023-03-01T09:26:14;102609.50;;;5.80;100.00
49457;BME280;35352;51.480;-0.862;2023-03-01T09:28:42;102611.82;;;5.43;100.00
49457;BME280;35352;51.480;-0.862;2023-03-01T09:31:14;102613.80;;;5.39;100.00
49457;BME280;35352;51.480;-0.862;2023-03-01T09:33:42;102613.78;;;5.41;100.00
49457;BME280;35352;51.480;-0.862;2023-03-01T09:36:16;102613.50;;;5.53;100.00
49457;BME280;35352;51.480;-0.862;2023-03-01T09:38:44;102611.79;;;5.88;100.00
49457;BME280;35352;51.480;-0.862;2023-03-01T09:41:29;102614.51;;;5.62;100.00
49457;BME280;35352;51.480;-0.862;2023-03-01T09:44:07;102610.70;;;5.86;100.00
49457;BME280;35352;51.480;-0.862;2023-03-01T09:46:43;102605.58;;;6.16;100.00
49457;BME280;35352;51.480;-0.862;2023-03-01T09:49:14;102600.08;;;6.70;100.00
49457;BME280;35352;51.480;-0.862;2023-03-01T09:51:47;102597.02;;;6.44;100.00
49457;BME280;35352;51.480;-0.862;2023-03-01T09:54:22;102594.50;;;6.65;100.00
49457;BME280;35352;51.480;-0.862;2023-03-01T09:57:03;102593.47;;;6.85;100.00
49457;BME280;35352;51.480;-0.862;2023-03-01T09:59:47;102592.58;;;6.75;100.00
49457;BME280;35352;51.480;-0.862;2023-03-01T10:02:27;102586.07;;;7.18;100.00
49457;BME280;35352;51.480;-0.862;2023-03-01T10:05:05;102579.93;;;6.99;100.00
49457;BME280;35352;51.480;-0.862;2023-03-01T10:07:42;102582.16;;;6.88;100.00
49457;BME280;35352;51.480;-0.862;2023-03-01T10:11:21;102575.84;;;6.74;100.00
49457;BME280;35352;51.480;-0.862;2023-03-01T10:13:56;102576.90;;;6.83;100.00
49457;BME280;35352;51.480;-0.862;2023-03-01T10:16:31;102577.27;;;6.67;100.00
49457;BME280;35352;51.480;-0.862;2023-03-01T10:19:05;102569.38;;;6.93;100.00
49457;BME280;35352;51.480;-0.862;2023-03-01T10:21:44;102571.40;;;7.62;100.00
49457;BME280;35352;51.480;-0.862;2023-03-01T10:24:14;102567.59;;;7.43;100.00
49457;BME280;35352;51.480;-0.862;2023-03-01T10:26:53;102570.90;;;6.47;100.00
49457;BME280;35352;51.480;-0.862;2023-03-01T10:29:26;102563.55;;;6.88;100.00
49457;BME280;35352;51.480;-0.862;2023-03-01T10:31:57;102566.38;;;6.31;100.00
49457;BME280;35352;51.480;-0.862;2023-03-01T10:34:29;102558.34;;;5.90;100.00
49457;BME280;35352;51.480;-0.862;2023-03-01T10:37:08;102552.49;;;6.04;100.00
49457;BME280;35352;51.480;-0.862;2023-03-01T10:39:36;102547.22;;;5.98;100.00
49457;BME280;35352;51.480;-0.862;2023-03-01T10:42:07;102549.59;;;5.43;100.00
49457;BME280;35352;51.480;-0.862;2023-03-01T10:44:48;102544.90;;;5.73;100.00
49457;BME280;35352;51.480;-0.862;2023-03-01T10:47:19;102543.37;;;5.94;100.00
49457;BME280;35352;51.480;-0.862;2023-03-01T10:49:57;102543.48;;;5.80;100.00
49457;BME280;35352;51.480;-0.862;2023-03-01T10:52:30;102547.04;;;5.64;100.00
49457;BME280;35352;51.480;-0.862;2023-03-01T10:55:01;102548.32;;;5.51;100.00
49457;BME280;35352;51.480;-0.862;2023-03-01T10:57:32;102545.29;;;5.61;100.00
49457;BME280;35352;51.480;-0.862;2023-03-01T11:00:20;102541.18;;;5.72;100.00
49457;BME280;35352;51.480;-0.862;2023-03-01T11:02:50;102539.62;;;5.55;100.00
49457;BME280;35352;51.480;-0.862;2023-03-01T11:05:22;102536.18;;;5.57;100.00
49457;BME280;35352;51.480;-0.862;2023-03-01T11:07:52;102529.82;;;5.90;100.00
49457;BME280;35352;51.480;-0.862;2023-03-01T11:11:30;102520.95;;;6.10;100.00
49457;BME280;35352;51.480;-0.862;2023-03-01T11:14:00;102519.89;;;5.58;100.00
49457;BME280;35352;51.480;-0.862;2023-03-01T11:16:33;102518.67;;;5.73;100.00
49457;BME280;35352;51.480;-0.862;2023-03-01T11:19:17;102521.71;;;5.54;100.00
49457;BME280;35352;51.480;-0.862;2023-03-01T11:21:54;102520.26;;;5.37;100.00
49457;BME280;35352;51.480;-0.862;2023-03-01T11:24:26;102517.84;;;5.81;100.00
49457;BME280;35352;51.480;-0.862;2023-03-01T11:27:02;102519.20;;;6.52;100.00
49457;BME280;35352;51.480;-0.862;2023-03-01T11:29:37;102520.56;;;6.08;100.00
49457;BME280;35352;51.480;-0.862;2023-03-01T11:32:07;102521.06;;;6.13;100.00
49457;BME280;35352;51.480;-0.862;2023-03-01T11:34:42;102514.93;;;6.01;100.00
49457;BME280;35352;51.480;-0.862;2023-03-01T11:37:24;102511.04;;;5.94;100.00
49457;BME280;35352;51.480;-0.862;2023-03-01T11:40:01;102504.64;;;6.57;100.00
49457;BME280;35352;51.480;-0.862;2023-03-01T11:42:47;102502.20;;;6.54;100.00
49457;BME280;35352;51.480;-0.862;2023-03-01T11:45:16;102497.57;;;6.74;100.00
49457;BME280;35352;51.480;-0.862;2023-03-01T11:48:04;102492.69;;;6.88;100.00
49457;BME280;35352;51.480;-0.862;2023-03-01T11:51:20;102488.37;;;7.19;100.00
49457;BME280;35352;51.480;-0.862;2023-03-01T11:54:02;102486.39;;;6.91;100.00
49457;BME280;35352;51.480;-0.862;2023-03-01T11:56:38;102484.05;;;6.63;100.00
49457;BME280;35352;51.480;-0.862;2023-03-01T11:59:21;102483.19;;;6.65;100.00
49457;BME280;35352;51.480;-0.862;2023-03-01T12:02:10;102480.39;;;6.59;100.00
49457;BME280;35352;51.480;-0.862;2023-03-01T12:04:59;102474.41;;;6.94;100.00
49457;BME280;35352;51.480;-0.862;2023-03-01T12:07:40;102476.14;;;7.22;100.00
49457;BME280;35352;51.480;-0.862;2023-03-01T12:11:23;102463.43;;;7.76;100.00
49457;BME280;35352;51.480;-0.862;2023-03-01T12:14:10;102452.90;;;7.32;100.00
49457;BME280;35352;51.480;-0.862;2023-03-01T12:17:03;102445.94;;;7.75;100.00
49457;BME280;35352;51.480;-0.862;2023-03-01T12:20:02;102436.81;;;7.57;100.00
49457;BME280;35352;51.480;-0.862;2023-03-01T12:22:51;102432.82;;;7.83;100.00
49457;BME280;35352;51.480;-0.862;2023-03-01T12:25:28;102425.93;;;6.96;100.00
49457;BME280;35352;51.480;-0.862;2023-03-01T12:28:16;102425.19;;;7.87;100.00
49457;BME280;35352;51.480;-0.862;2023-03-01T12:33:30;102420.55;;;7.84;100.00
49457;BME280;35352;51.480;-0.862;2023-03-01T12:33:45;102409.01;;;8.15;100.00
49457;BME280;35352;51.480;-0.862;2023-03-01T12:36:29;102404.30;;;7.45;100.00
49457;BME280;35352;51.480;-0.862;2023-03-01T12:39:19;102401.54;;;7.50;100.00
49457;BME280;35352;51.480;-0.862;2023-03-01T12:41:59;102394.90;;;7.77;100.00
49457;BME280;35352;51.480;-0.862;2023-03-01T12:44:47;102391.57;;;7.59;100.00
49457;BME280;35352;51.480;-0.862;2023-03-01T12:47:28;102377.06;;;7.58;100.00
49457;BME280;35352;51.480;-0.862;2023-03-01T12:50:03;102375.22;;;7.10;100.00
49457;BME280;35352;51.480;-0.862;2023-03-01T12:52:40;102371.57;;;7.44;100.00
49457;BME280;35352;51.480;-0.862;2023-03-01T12:55:28;102361.81;;;8.63;100.00
49457;BME280;35352;51.480;-0.862;2023-03-01T12:58:07;102355.65;;;8.28;100.00
49457;BME280;35352;51.480;-0.862;2023-03-01T13:01:21;102352.30;;;7.87;100.00
49457;BME280;35352;51.480;-0.862;2023-03-01T13:04:05;102344.69;;;8.32;100.00
49457;BME280;35352;51.480;-0.862;2023-03-01T13:06:40;102345.97;;;8.15;100.00
49457;BME280;35352;51.480;-0.862;2023-03-01T13:09:19;102341.88;;;8.04;100.00
49457;BME280;35352;51.480;-0.862;2023-03-01T13:11:49;102329.89;;;7.56;100.00